createdAt,value
2023-04-01T00:01:00.260Z,76.16
2023-04-01T00:02:07.010Z,76.09
2023-04-01T00:03:12.558Z,76.40
2023-04-01T00:04:20.031Z,75.89
2023-04-01T00:05:26.862Z,76.46
2023-04-01T00:06:33.638Z,75.95
2023-04-01T00:07:39.001Z,76.27
2023-04-01T00:08:47.574Z,76.29
2023-04-01T00:09:54.388Z,76.17
2023-04-01T00:11:00.000Z,76.14
2023-04-01T00:12:07.193Z,75.98
2023-04-01T00:13:13.330Z,76.04
2023-04-01T00:14:20.081Z,76.06
2023-04-01T00:15:25.474Z,75.99
2023-04-01T00:16:32.210Z,76.02
2023-04-01T00:17:38.117Z,76.13
2023-04-01T00:18:44.961Z,76.18
2023-04-01T00:19:50.537Z,75.73
2023-04-01T00:20:57.578Z,75.78
2023-04-01T00:22:04.564Z,75.67
2023-04-01T00:23:09.971Z,75.95
2023-04-01T00:24:18.453Z,75.92
2023-04-01T00:25:24.045Z,76.10
2023-04-01T00:26:30.796Z,75.84
2023-04-01T00:27:36.247Z,75.76
2023-04-01T00:28:43.032Z,76.06
2023-04-01T00:29:48.980Z,76.00
2023-04-01T00:30:55.756Z,76.00
2023-04-01T00:32:01.379Z,75.89
2023-04-01T00:33:08.448Z,75.85
2023-04-01T00:34:13.814Z,75.85
2023-04-01T00:35:20.949Z,76.10
2023-04-01T00:36:26.423Z,75.76
2023-04-01T00:37:33.372Z,76.07
2023-04-01T00:38:39.075Z,76.03
2023-04-01T00:39:47.551Z,76.17
2023-04-01T00:40:53.698Z,76.22
2023-04-01T00:42:00.675Z,76.39
2023-04-01T00:43:06.998Z,76.04
2023-04-01T00:44:24.701Z,76.84
2023-04-01T00:45:34.734Z,76.72
2023-04-01T00:46:41.550Z,75.88
2023-04-01T00:47:49.523Z,76.20
2023-04-01T00:49:12.299Z,76.33
2023-04-01T00:50:17.838Z,76.36
2023-04-01T00:51:26.782Z,76.06
2023-04-01T00:52:32.224Z,76.13
2023-04-01T00:53:41.273Z,75.91
2023-04-01T00:54:51.023Z,76.75
2023-04-01T00:56:01.118Z,76.50
2023-04-01T00:57:09.192Z,76.08
2023-04-01T00:58:19.851Z,76.39
2023-04-01T00:59:29.028Z,75.65
2023-04-01T01:00:35.780Z,75.92
2023-04-01T01:01:41.470Z,76.04
2023-04-01T01:02:57.884Z,76.34
2023-04-01T01:04:04.729Z,75.86
2023-04-01T01:05:12.446Z,75.86
2023-04-01T01:06:30.562Z,76.48
2023-04-01T01:07:42.145Z,76.04
2023-04-01T01:09:13.872Z,75.36
2023-04-01T01:10:23.039Z,75.86
2023-04-01T01:11:40.904Z,75.66
2023-04-01T01:12:51.423Z,75.68
2023-04-01T01:14:00.865Z,76.05
2023-04-01T01:15:13.473Z,76.02
2023-04-01T01:16:23.577Z,75.89
2023-04-01T01:17:38.786Z,75.39
2023-04-01T01:18:47.568Z,75.36
2023-04-01T01:20:15.650Z,74.32
2023-04-01T01:21:52.807Z,74.28
2023-04-01T01:23:18.579Z,74.14
2023-04-01T01:24:58.327Z,74.31
2023-04-01T01:26:17.789Z,73.47
2023-04-01T01:27:25.361Z,74.22
2023-04-01T01:28:39.575Z,73.81
2023-04-01T01:29:59.122Z,73.36
2023-04-01T01:31:10.907Z,73.47
2023-04-01T01:32:27.391Z,72.84
2023-04-01T01:33:53.628Z,71.38
2023-04-01T01:35:11.218Z,72.29
2023-04-01T01:36:19.030Z,71.89
2023-04-01T01:37:26.893Z,72.11
2023-04-01T01:38:36.960Z,71.81
2023-04-01T01:39:43.592Z,71.89
2023-04-01T01:40:54.301Z,71.70
2023-04-01T01:42:00.900Z,71.04
2023-04-01T01:43:10.950Z,71.06
2023-04-01T01:44:19.607Z,70.67
2023-04-01T01:45:28.581Z,70.83
2023-04-01T01:46:35.022Z,71.10
2023-04-01T01:47:42.318Z,71.33
2023-04-01T01:48:48.497Z,70.66
2023-04-01T01:49:56.665Z,70.67
2023-04-01T01:51:03.894Z,70.46
2023-04-01T01:52:10.533Z,70.37
2023-04-01T01:53:16.566Z,69.92
2023-04-01T01:54:23.249Z,69.71
2023-04-01T01:55:32.461Z,69.54
2023-04-01T01:56:39.736Z,69.25
2023-04-01T01:57:46.516Z,69.37
2023-04-01T01:58:56.903Z,68.52
2023-04-01T02:00:06.011Z,68.72
2023-04-01T02:01:16.558Z,68.26
2023-04-01T02:02:21.992Z,69.13
2023-04-01T02:03:29.882Z,68.85
2023-04-01T02:04:35.400Z,68.29
2023-04-01T02:05:45.024Z,67.79
2023-04-01T02:06:56.306Z,67.66
2023-04-01T02:08:07.030Z,67.56
2023-04-01T02:09:13.869Z,68.19
2023-04-01T02:10:20.612Z,68.00
2023-04-01T02:11:31.483Z,67.70
2023-04-01T02:12:37.902Z,67.88
2023-04-01T02:13:48.025Z,67.80
2023-04-01T02:14:56.501Z,67.81
2023-04-01T02:16:07.372Z,67.72
2023-04-01T02:17:14.198Z,67.65
2023-04-01T02:18:21.976Z,67.47
2023-04-01T02:19:29.982Z,67.15
2023-04-01T02:20:36.872Z,67.17
2023-04-01T02:21:44.120Z,66.92
2023-04-01T02:22:53.895Z,66.45
2023-04-01T02:24:00.787Z,66.13
2023-04-01T02:25:10.660Z,65.29
2023-04-01T02:26:16.441Z,66.16
2023-04-01T02:27:23.317Z,65.85
2023-04-01T02:28:28.862Z,65.67
2023-04-01T02:29:36.158Z,65.74
2023-04-01T02:30:43.329Z,65.71
2023-04-01T02:31:50.112Z,65.54
2023-04-01T02:32:55.454Z,65.62
2023-04-01T02:34:02.580Z,65.39
2023-04-01T02:35:09.228Z,65.70
2023-04-01T02:36:20.415Z,64.90
2023-04-01T02:37:25.787Z,64.88
2023-04-01T02:38:34.191Z,64.78
2023-04-01T02:39:39.484Z,64.08
2023-04-01T02:40:52.206Z,62.61
2023-04-01T02:41:57.526Z,64.52
2023-04-01T02:43:04.177Z,64.37
2023-04-01T02:44:10.141Z,64.00
2023-04-01T02:45:18.329Z,63.65
2023-04-01T02:46:25.001Z,64.23
2023-04-01T02:47:30.385Z,64.16
2023-04-01T02:48:37.100Z,63.55
2023-04-01T02:49:42.405Z,63.14
2023-04-01T02:50:49.055Z,62.88
2023-04-01T02:51:54.489Z,63.41
2023-04-01T02:53:01.143Z,62.71
2023-04-01T02:54:08.357Z,62.35
2023-04-01T02:55:15.204Z,63.08
2023-04-01T02:56:22.162Z,62.39
2023-04-01T02:57:27.676Z,62.41
2023-04-01T02:58:34.477Z,62.92
2023-04-01T02:59:39.754Z,62.92
2023-04-01T03:00:46.390Z,62.28
2023-04-01T03:01:51.646Z,62.72
2023-04-01T03:02:58.890Z,62.79
2023-04-01T03:04:04.344Z,62.30
2023-04-01T03:05:11.774Z,62.88
2023-04-01T03:06:18.432Z,62.85
2023-04-01T03:07:25.046Z,62.24
2023-04-01T03:08:30.332Z,62.65
2023-04-01T03:09:38.638Z,62.92
2023-04-01T03:10:43.877Z,62.45
2023-04-01T03:11:50.509Z,62.96
2023-04-01T03:12:56.858Z,62.61
2023-04-01T03:14:03.541Z,62.50
2023-04-01T03:15:10.444Z,62.37
2023-04-01T03:16:18.303Z,62.17
2023-04-01T03:17:23.706Z,62.06
2023-04-01T03:18:30.498Z,62.30
2023-04-01T03:19:35.848Z,62.40
2023-04-01T03:20:42.493Z,62.16
2023-04-01T03:21:47.905Z,62.25
2023-04-01T03:22:54.618Z,62.22
2023-04-01T03:24:00.103Z,61.90
2023-04-01T03:25:10.069Z,62.13
2023-04-01T03:26:15.887Z,62.07
2023-04-01T03:27:22.683Z,61.90
2023-04-01T03:28:28.002Z,61.77
2023-04-01T03:29:34.751Z,62.20
2023-04-01T03:30:40.322Z,62.24
2023-04-01T03:31:47.068Z,62.19
2023-04-01T03:32:52.567Z,61.95
2023-04-01T03:33:59.302Z,62.04
2023-04-01T03:35:04.708Z,62.25
2023-04-01T03:36:14.066Z,62.25
2023-04-01T03:37:20.776Z,62.44
2023-04-01T03:38:26.129Z,62.46
2023-04-01T03:39:32.872Z,62.11
2023-04-01T03:40:40.819Z,61.66
2023-04-01T03:41:47.516Z,61.67
2023-04-01T03:42:53.178Z,61.61
2023-04-01T03:43:59.871Z,61.46
2023-04-01T03:45:05.400Z,61.73
2023-04-01T03:46:12.235Z,61.25
2023-04-01T03:47:17.594Z,61.13
2023-04-01T03:48:24.552Z,61.55
2023-04-01T03:49:29.949Z,61.14
2023-04-01T03:50:36.592Z,61.30
2023-04-01T03:51:42.286Z,61.29
2023-04-01T03:52:48.967Z,61.25
2023-04-01T03:53:54.328Z,61.74
2023-04-01T03:55:01.056Z,61.67
2023-04-01T03:56:10.782Z,61.48
2023-04-01T03:57:17.598Z,61.66
2023-04-01T03:58:22.967Z,61.38
2023-04-01T03:59:29.731Z,61.33
2023-04-01T04:00:35.170Z,61.25
2023-04-01T04:01:42.048Z,61.39
2023-04-01T04:02:47.709Z,61.23
2023-04-01T04:03:54.910Z,61.78
2023-04-01T04:05:00.316Z,61.57
2023-04-01T04:06:07.055Z,61.52
2023-04-01T04:07:12.412Z,61.35
2023-04-01T04:08:19.177Z,61.38
2023-04-01T04:09:24.565Z,60.98
2023-04-01T04:10:31.751Z,61.47
2023-04-01T04:11:38.831Z,60.70
2023-04-01T04:12:46.445Z,60.65
2023-04-01T04:13:52.093Z,61.08
2023-04-01T04:14:58.749Z,60.92
2023-04-01T04:16:04.151Z,60.58
2023-04-01T04:17:14.395Z,60.85
2023-04-01T04:18:19.965Z,60.77
2023-04-01T04:19:29.449Z,61.07
2023-04-01T04:20:34.704Z,61.36
2023-04-01T04:21:41.414Z,61.09
2023-04-01T04:22:46.680Z,61.26
2023-04-01T04:23:53.310Z,61.55
2023-04-01T04:24:58.617Z,61.25
2023-04-01T04:26:06.485Z,61.31
2023-04-01T04:27:14.830Z,61.52
2023-04-01T04:28:20.099Z,61.16
2023-04-01T04:29:27.016Z,61.42
2023-04-01T04:30:33.726Z,61.43
2023-04-01T04:31:39.054Z,61.45
2023-04-01T04:32:45.778Z,61.40
2023-04-01T04:33:51.182Z,61.37
2023-04-01T04:34:57.778Z,61.75
2023-04-01T04:36:03.505Z,61.77
2023-04-01T04:37:10.182Z,61.74
2023-04-01T04:38:15.459Z,61.89
2023-04-01T04:39:22.081Z,62.08
2023-04-01T04:40:27.338Z,61.96
2023-04-01T04:41:35.873Z,61.92
2023-04-01T04:42:44.177Z,62.06
2023-04-01T04:43:55.259Z,62.22
2023-04-01T04:45:01.946Z,61.88
2023-04-01T04:46:10.748Z,61.50
2023-04-01T04:47:16.106Z,61.93
2023-04-01T04:48:23.003Z,61.63
2023-04-01T04:49:28.334Z,61.52
2023-04-01T04:50:37.307Z,61.60
2023-04-01T04:51:42.586Z,61.39
2023-04-01T04:52:49.168Z,61.04
2023-04-01T04:53:55.856Z,61.30
2023-04-01T04:55:01.126Z,61.32
2023-04-01T04:56:07.817Z,61.18
2023-04-01T04:57:13.144Z,61.16
2023-04-01T04:58:21.591Z,60.94
2023-04-01T04:59:26.914Z,60.87
2023-04-01T05:00:33.556Z,60.84
2023-04-01T05:01:38.943Z,60.76
2023-04-01T05:02:45.770Z,60.67
2023-04-01T05:03:52.417Z,60.48
2023-04-01T05:04:57.729Z,60.50
2023-04-01T05:06:04.293Z,60.65
2023-04-01T05:07:09.628Z,60.53
2023-04-01T05:08:16.266Z,60.50
2023-04-01T05:09:21.633Z,60.52
2023-04-01T05:10:28.292Z,60.37
2023-04-01T05:11:33.589Z,60.41
2023-04-01T05:12:41.296Z,60.22
2023-04-01T05:13:50.147Z,59.65
2023-04-01T05:14:56.864Z,60.19
2023-04-01T05:16:03.512Z,60.01
2023-04-01T05:17:10.880Z,59.84
2023-04-01T05:18:17.886Z,59.66
2023-04-01T05:19:24.652Z,59.56
2023-04-01T05:20:30.063Z,59.35
2023-04-01T05:21:40.129Z,59.76
2023-04-01T05:22:45.570Z,59.55
2023-04-01T05:23:52.293Z,59.42
2023-04-01T05:24:57.688Z,59.51
2023-04-01T05:26:06.874Z,59.61
2023-04-01T05:27:12.245Z,59.08
2023-04-01T05:28:20.053Z,59.37
2023-04-01T05:29:27.398Z,59.03
2023-04-01T05:30:34.108Z,58.78
2023-04-01T05:31:39.469Z,59.32
2023-04-01T05:32:46.345Z,58.54
2023-04-01T05:33:53.246Z,58.84
2023-04-01T05:34:58.779Z,58.78
2023-04-01T05:36:12.003Z,58.25
2023-04-01T05:37:17.604Z,58.59
2023-04-01T05:38:24.303Z,58.46
2023-04-01T05:39:29.845Z,58.73
2023-04-01T05:40:37.394Z,58.41
2023-04-01T05:41:44.645Z,58.51
2023-04-01T05:42:50.033Z,58.64
2023-04-01T05:43:56.791Z,58.38
2023-04-01T05:45:03.921Z,58.23
2023-04-01T05:46:10.979Z,58.24
2023-04-01T05:47:16.493Z,57.97
2023-04-01T05:48:23.189Z,58.62
2023-04-01T05:49:29.025Z,58.47
2023-04-01T05:50:36.000Z,57.98
2023-04-01T05:51:41.366Z,58.01
2023-04-01T05:52:48.869Z,57.98
2023-04-01T05:53:54.280Z,57.73
2023-04-01T05:55:02.302Z,57.74
2023-04-01T05:56:08.214Z,57.87
2023-04-01T05:57:15.028Z,57.73
2023-04-01T05:58:20.403Z,57.49
2023-04-01T05:59:33.713Z,57.40
2023-04-01T06:00:43.841Z,57.77
2023-04-01T06:01:50.637Z,58.05
2023-04-01T06:02:56.078Z,58.05
2023-04-01T06:04:03.100Z,57.83
2023-04-01T06:05:17.416Z,57.32
2023-04-01T06:06:29.443Z,56.82
2023-04-01T06:07:34.862Z,57.59
2023-04-01T06:08:41.560Z,56.98
2023-04-01T06:09:47.554Z,57.08
2023-04-01T06:11:11.459Z,57.46
2023-04-01T06:12:33.554Z,57.49
2023-04-01T06:13:52.789Z,56.62
2023-04-01T06:15:10.152Z,56.93
2023-04-01T06:16:23.523Z,56.83
2023-04-01T06:17:39.254Z,57.11
2023-04-01T06:19:02.084Z,57.18
2023-04-01T06:20:12.603Z,56.95
2023-04-01T06:21:38.792Z,56.63
2023-04-01T06:22:56.414Z,57.32
2023-04-01T06:24:09.833Z,56.76
2023-04-01T06:25:36.958Z,55.76
2023-04-01T06:26:46.599Z,55.87
2023-04-01T06:28:04.508Z,55.32
2023-04-01T06:29:34.135Z,56.03
2023-04-01T06:30:45.558Z,56.41
2023-04-01T06:32:09.005Z,56.06
2023-04-01T06:33:31.387Z,55.30
2023-04-01T06:35:05.961Z,56.18
2023-04-01T06:36:37.491Z,55.98
2023-04-01T06:37:59.645Z,55.53
2023-04-01T06:39:30.967Z,55.02
2023-04-01T06:41:00.700Z,53.52
2023-04-01T06:42:34.596Z,54.29
2023-04-01T06:43:50.949Z,53.60
2023-04-01T06:45:03.645Z,54.15
2023-04-01T06:46:14.121Z,53.54
2023-04-01T06:47:32.335Z,53.23
2023-04-01T06:49:03.787Z,52.20
2023-04-01T06:50:15.441Z,52.30
2023-04-01T06:51:29.783Z,51.51
2023-04-01T06:52:41.197Z,52.63
2023-04-01T06:53:52.838Z,53.06
2023-04-01T06:55:05.813Z,53.50
2023-04-01T06:56:13.504Z,53.36
2023-04-01T06:57:26.758Z,52.33
2023-04-01T06:58:40.816Z,53.35
2023-04-01T06:59:47.783Z,53.06
2023-04-01T07:00:55.512Z,52.83
2023-04-01T07:02:04.861Z,53.46
2023-04-01T07:03:20.842Z,52.88
2023-04-01T07:04:31.344Z,52.89
2023-04-01T07:05:38.601Z,53.27
2023-04-01T07:06:49.110Z,52.34
2023-04-01T07:07:58.431Z,51.56
2023-04-01T07:09:06.361Z,52.80
2023-04-01T07:10:17.811Z,51.36
2023-04-01T07:11:29.464Z,51.53
2023-04-01T07:12:43.721Z,52.30
2023-04-01T07:13:54.268Z,51.35
2023-04-01T07:15:00.630Z,51.44
2023-04-01T07:16:16.869Z,50.07
2023-04-01T07:17:25.550Z,51.30
2023-04-01T07:18:39.745Z,50.99
2023-04-01T07:19:50.349Z,50.54
2023-04-01T07:20:56.096Z,51.03
2023-04-01T07:22:06.521Z,49.74
2023-04-01T07:23:20.396Z,50.52
2023-04-01T07:24:27.921Z,50.58
2023-04-01T07:25:36.261Z,50.41
2023-04-01T07:26:42.862Z,50.59
2023-04-01T07:27:48.610Z,50.52
2023-04-01T07:28:56.677Z,49.99
2023-04-01T07:30:02.820Z,49.77
2023-04-01T07:31:20.410Z,48.88
2023-04-01T07:32:33.288Z,50.05
2023-04-01T07:33:46.430Z,48.90
2023-04-01T07:35:10.790Z,48.79
2023-04-01T07:36:22.706Z,49.81
2023-04-01T07:37:33.879Z,49.43
2023-04-01T07:38:45.335Z,49.90
2023-04-01T07:39:57.019Z,50.14
2023-04-01T07:41:10.043Z,50.52
2023-04-01T07:42:23.865Z,49.62
2023-04-01T07:43:47.081Z,50.59
2023-04-01T07:45:01.587Z,50.86
2023-04-01T07:46:14.946Z,50.97
2023-04-01T07:47:29.681Z,50.69
2023-04-01T07:48:40.231Z,51.08
2023-04-01T07:49:57.914Z,51.08
2023-04-01T07:51:05.707Z,51.19
2023-04-01T07:52:19.705Z,51.17
2023-04-01T07:53:30.420Z,50.88
2023-04-01T07:54:43.779Z,50.82
2023-04-01T07:55:52.721Z,50.07
2023-04-01T07:57:02.958Z,50.76
2023-04-01T07:58:11.683Z,50.25
2023-04-01T07:59:24.601Z,49.34
2023-04-01T08:00:33.869Z,49.66
2023-04-01T08:01:44.115Z,49.38
2023-04-01T08:03:20.653Z,49.17
2023-04-01T08:04:33.703Z,50.02
2023-04-01T08:06:51.501Z,50.20
2023-04-01T08:08:08.683Z,50.10
2023-04-01T08:09:24.262Z,49.68
2023-04-01T08:10:38.866Z,50.20
2023-04-01T08:12:01.065Z,50.58
2023-04-01T08:13:13.444Z,49.98
2023-04-01T08:14:25.078Z,50.54
2023-04-01T08:15:33.454Z,49.49
2023-04-01T08:16:44.554Z,50.24
2023-04-01T08:18:00.682Z,49.43
2023-04-01T08:19:14.685Z,50.42
2023-04-01T08:20:29.762Z,49.66
2023-04-01T08:21:39.926Z,49.86
2023-04-01T08:22:48.791Z,49.99
2023-04-01T08:23:57.705Z,49.68
2023-04-01T08:25:05.808Z,49.40
2023-04-01T08:26:15.628Z,49.84
2023-04-01T08:27:25.344Z,49.56
2023-04-01T08:28:37.119Z,49.06
2023-04-01T08:29:46.183Z,49.32
2023-04-01T08:30:54.728Z,49.59
2023-04-01T08:32:04.682Z,49.32
2023-04-01T08:33:14.743Z,48.21
2023-04-01T08:34:24.971Z,47.51
2023-04-01T08:35:37.649Z,48.75
2023-04-01T08:36:49.810Z,49.09
2023-04-01T08:37:58.878Z,49.09
2023-04-01T08:39:11.888Z,49.11
2023-04-01T08:40:38.995Z,49.22
2023-04-01T08:42:29.180Z,47.99
2023-04-01T08:43:57.222Z,47.42
2023-04-01T08:45:15.597Z,48.20
2023-04-01T08:46:50.499Z,49.25
2023-04-01T08:48:27.457Z,49.20
2023-04-01T08:49:48.841Z,49.20
2023-04-01T08:51:14.515Z,49.19
2023-04-01T08:52:45.709Z,48.25
2023-04-01T08:54:13.919Z,48.88
2023-04-01T08:55:58.492Z,48.92
2023-04-01T08:57:11.487Z,48.24
2023-04-01T08:59:02.208Z,48.01
2023-04-01T09:00:19.946Z,48.67
2023-04-01T09:01:38.409Z,47.75
2023-04-01T09:04:19.512Z,47.11
2023-04-01T09:06:01.287Z,47.36
2023-04-01T09:07:18.608Z,48.19
2023-04-01T09:08:35.185Z,48.05
2023-04-01T09:10:09.092Z,47.74
2023-04-01T09:11:25.874Z,48.21
2023-04-01T09:12:55.410Z,48.08
2023-04-01T09:14:30.508Z,47.27
2023-04-01T09:16:15.042Z,47.96
2023-04-01T09:17:53.385Z,47.81
2023-04-01T09:21:47.347Z,47.85
2023-04-01T09:23:24.116Z,48.22
2023-04-01T09:25:06.242Z,48.11
2023-04-01T09:26:33.296Z,46.89
2023-04-01T09:27:41.467Z,47.08
2023-04-01T09:28:52.529Z,47.51
2023-04-01T09:30:30.933Z,47.91
2023-04-01T09:32:11.106Z,47.24
2023-04-01T09:33:59.397Z,46.70
2023-04-01T09:35:13.072Z,48.23
2023-04-01T09:36:29.732Z,48.01
2023-04-01T09:37:53.730Z,48.65
2023-04-01T09:39:02.953Z,47.84
2023-04-01T09:40:22.775Z,47.78
2023-04-01T09:41:35.804Z,48.51
2023-04-01T09:42:48.946Z,47.60
2023-04-01T09:44:06.203Z,48.55
2023-04-01T09:45:17.480Z,49.16
2023-04-01T09:46:31.479Z,48.76
2023-04-01T09:47:50.644Z,47.96
2023-04-01T09:49:26.390Z,49.28
2023-04-01T09:50:38.106Z,49.63
2023-04-01T09:51:50.160Z,49.07
2023-04-01T09:53:03.641Z,49.32
2023-04-01T09:54:23.839Z,48.84
2023-04-01T09:55:56.381Z,49.32
2023-04-01T09:57:29.202Z,50.03
2023-04-01T09:58:57.552Z,49.95
2023-04-01T10:00:42.673Z,49.60
2023-04-01T10:43:52.265Z,57.90
2023-04-01T10:47:29.446Z,58.22
2023-04-01T10:49:20.033Z,58.83
2023-04-01T10:51:18.989Z,58.81
2023-04-01T10:53:00.491Z,59.15
2023-04-01T10:54:35.131Z,59.26
2023-04-01T10:56:10.302Z,59.11
2023-04-01T10:57:35.961Z,59.32
2023-04-01T10:59:09.883Z,59.37
2023-04-01T11:00:34.099Z,60.04
2023-04-01T11:02:15.238Z,60.06
2023-04-01T11:03:49.467Z,59.81
2023-04-01T11:05:25.331Z,60.31
2023-04-01T11:22:29.558Z,61.33
2023-04-01T11:24:04.909Z,62.14
2023-04-01T11:25:30.736Z,61.98
2023-04-01T11:26:51.400Z,61.90
2023-04-01T11:28:13.669Z,62.44
2023-04-01T11:43:01.657Z,63.10
2023-04-01T11:44:26.136Z,63.80
2023-04-01T11:45:43.131Z,63.08
2023-04-01T11:46:57.782Z,62.61
2023-04-01T11:48:28.513Z,63.52
2023-04-01T11:49:58.551Z,63.83
2023-04-01T11:51:22.452Z,63.73
2023-04-01T11:52:55.264Z,64.52
2023-04-01T11:54:09.045Z,64.50
2023-04-01T11:55:28.920Z,63.61
2023-04-01T11:56:54.846Z,64.64
2023-04-01T11:58:14.470Z,63.48
2023-04-01T11:59:56.480Z,64.33
2023-04-01T12:01:31.956Z,64.64
2023-04-01T12:02:49.305Z,64.51
2023-04-01T12:04:24.265Z,64.87
2023-04-01T12:05:40.857Z,65.09
2023-04-01T12:06:53.291Z,65.71
2023-04-01T12:08:19.149Z,64.53
2023-04-01T12:09:33.110Z,65.94
2023-04-01T12:10:44.235Z,65.09
2023-04-01T12:11:57.766Z,65.92
2023-04-01T12:13:11.445Z,66.38
2023-04-01T12:14:21.229Z,66.34
2023-04-01T12:15:33.770Z,65.38
2023-04-01T12:16:58.914Z,65.75
2023-04-01T12:18:13.972Z,66.62
2023-04-01T12:19:27.620Z,65.49
2023-04-01T12:20:48.873Z,66.99
2023-04-01T12:22:06.703Z,66.68
2023-04-01T12:23:22.503Z,66.82
2023-04-01T12:24:54.240Z,67.07
2023-04-01T20:17:06.130Z,74.93
2023-04-01T20:18:20.279Z,74.64
2023-04-01T20:19:39.583Z,74.14
2023-04-01T20:20:46.867Z,74.21
2023-04-01T20:21:53.700Z,74.08
2023-04-01T20:23:29.520Z,74.69
2023-04-01T20:24:39.772Z,74.59
2023-04-01T20:25:50.855Z,74.12
2023-04-01T20:27:03.485Z,74.25
2023-04-01T20:28:16.276Z,74.50
2023-04-01T20:29:41.481Z,74.38
2023-04-01T20:31:12.908Z,73.97
2023-04-01T20:32:45.941Z,74.05
2023-04-01T20:34:25.364Z,74.39
2023-04-01T20:35:40.483Z,74.06
2023-04-01T20:36:55.053Z,74.33
2023-04-01T20:38:16.735Z,74.68
2023-04-01T20:39:59.099Z,75.71
2023-04-01T20:41:09.784Z,74.58
2023-04-01T20:42:39.821Z,75.24
2023-04-01T20:44:01.845Z,75.46
2023-04-01T20:45:33.332Z,75.05
2023-04-01T20:46:47.966Z,74.95
2023-04-01T20:48:06.776Z,74.74
2023-04-01T20:49:46.627Z,74.94
2023-04-01T20:50:54.623Z,75.04
2023-04-01T20:52:09.897Z,75.10
2023-04-01T20:53:19.134Z,74.22
2023-04-01T20:54:36.540Z,74.22
2023-04-01T20:56:15.216Z,74.32
2023-04-01T20:57:25.565Z,74.20
2023-04-01T20:58:35.395Z,74.25
2023-04-01T20:59:54.210Z,75.12
2023-04-01T21:01:06.423Z,74.16
2023-04-01T21:02:24.807Z,75.37
2023-04-01T21:03:39.623Z,74.67
2023-04-01T21:05:05.042Z,74.89
2023-04-01T21:06:36.336Z,74.85
2023-04-01T21:07:45.334Z,74.63
2023-04-01T21:09:12.865Z,75.00
2023-04-01T21:10:44.681Z,75.19
2023-04-01T21:11:56.706Z,75.07
2023-04-01T21:13:13.033Z,75.33
2023-04-01T21:15:10.925Z,75.34
2023-04-01T21:16:28.780Z,75.06
2023-04-01T21:17:47.259Z,75.27
2023-04-01T21:19:08.877Z,75.24
2023-04-01T21:20:27.905Z,75.40
2023-04-01T21:22:09.854Z,75.64
2023-04-01T21:23:42.924Z,75.55
2023-04-01T21:25:00.041Z,75.68
2023-04-01T21:26:16.859Z,75.27
2023-04-01T21:27:34.565Z,75.53
2023-04-01T21:28:51.993Z,75.42
2023-04-01T21:30:03.385Z,75.48
2023-04-01T21:31:20.862Z,75.75
2023-04-01T21:32:46.283Z,76.98
2023-04-01T21:34:38.269Z,76.10
2023-04-01T21:35:53.326Z,76.00
2023-04-01T21:37:11.657Z,75.55
2023-04-01T21:38:37.032Z,75.55
2023-04-01T21:40:00.882Z,75.41
2023-04-01T21:41:28.631Z,75.53
2023-04-01T21:42:46.177Z,76.02
2023-04-01T21:44:21.225Z,75.50
2023-04-01T21:45:37.223Z,75.39
2023-04-01T21:47:06.650Z,75.10
2023-04-01T21:48:39.597Z,75.10
2023-04-01T21:49:55.302Z,74.80
2023-04-01T21:51:30.433Z,74.72
2023-04-01T21:52:56.832Z,74.25
2023-04-01T21:54:25.786Z,74.54
2023-04-01T22:14:07.105Z,74.60
2023-04-01T22:15:21.518Z,75.01
2023-04-01T22:16:35.165Z,74.45
2023-04-01T22:17:47.790Z,74.75
2023-04-01T22:19:01.947Z,75.24
2023-04-01T22:20:21.947Z,75.21
2023-04-01T22:21:31.855Z,74.99
2023-04-01T22:22:50.884Z,75.27
2023-04-01T22:24:06.172Z,74.89
2023-04-01T22:25:15.909Z,75.16
2023-04-01T22:26:29.271Z,75.38
2023-04-01T22:27:43.245Z,75.08
2023-04-01T22:28:57.464Z,75.15
2023-04-01T22:30:22.265Z,74.97
2023-04-01T22:31:32.808Z,74.94
2023-04-01T22:32:44.943Z,75.21
2023-04-01T22:33:57.725Z,75.15
2023-04-01T22:35:11.051Z,75.17
2023-04-01T22:36:26.765Z,75.25
2023-04-01T22:37:36.751Z,74.87
2023-04-01T22:38:58.455Z,75.15
2023-04-01T22:40:21.209Z,74.91
2023-04-01T22:41:35.450Z,75.08
2023-04-01T22:42:48.416Z,75.06
2023-04-01T22:43:59.952Z,75.16
2023-04-01T22:45:23.485Z,74.94
2023-04-01T22:46:46.373Z,75.48
2023-04-01T22:47:59.253Z,75.24
2023-04-01T22:49:12.373Z,74.76
2023-04-01T22:50:21.173Z,74.95
